Flight Track Log - Related Links

Times and Time Zones

All times are in EDT time to prevent confusion due to time zone crossing. See the CTL15 flight status page for this flight to view local times or setup timezone preferences in your user account.

Time Position Orientation Groundspeed Altitude Reporting Facility
EDT Latitude Longitude Course Direction KTS MPH feet Rate Location/Type
Fri 20:37:29 39.6650 -84.1211 53° Northeast 121 139 5,000  Level Indianapolis Center
Fri 20:38:12 39.6797 -84.0958 53° Northeast 116 133 5,800 1,010 Climbing Indianapolis Center
Fri 20:39:10 39.6961 -84.0681 53° Northeast 116 133 6,700 850 Climbing Indianapolis Center
Fri 20:40:12 39.7167 -84.0394 47° Northeast 111 128 7,500 774 Climbing Indianapolis Center
Fri 20:41:14 39.7392 -84.0100 45° Northeast 111 128 8,300 732 Climbing Indianapolis Center
Fri 20:42:15 39.7631 -83.9806 43° Northeast 115 132 9,000 341 Climbing Indianapolis Center
Fri 20:43:17 39.7942 -83.9425 43° Northeast 150 173 9,000  Level Indianapolis Center
Fri 20:44:18 39.8228 -83.9061 44° Northeast 142 163 9,000  Level Indianapolis Center
Fri 20:45:20 39.8539 -83.8689 43° Northeast 149 171 9,000  Level Indianapolis Center
Fri 20:46:19 39.8844 -83.8292 45° Northeast 151 174 9,000  Level Indianapolis Center
Fri 20:47:23 39.9136 -83.7908 45° Northeast 150 173 9,000  Level Indianapolis Center
Fri 20:48:15 39.9403 -83.7572 44° Northeast 148 170 9,000  Level Indianapolis Center
Fri 20:49:15 39.9703 -83.7203 43° Northeast 150 173 9,000  Level Indianapolis Center
Fri 20:50:16 40.0019 -83.6861 40° Northeast 145 167 9,000  Level Indianapolis Center
Fri 20:51:29 40.0369 -83.6431 43° Northeast 149 171 9,000  Level Indianapolis Center
Fri 20:52:18 40.0622 -83.6092 46° Northeast 148 170 9,000  Level Indianapolis Center
Fri 20:53:19 40.0942 -83.5722 41° Northeast 149 171 9,000  Level Indianapolis Center
Fri 20:54:20 40.1219 -83.5347 46° Northeast 149 171 9,000  Level Indianapolis Center
Fri 20:55:21 40.1542 -83.4950 43° Northeast 151 174 9,000  Level Indianapolis Center
Fri 20:56:28 40.1886 -83.4528 43° Northeast 150 173 9,000  Level Indianapolis Center
Fri 20:57:28 40.2206 -83.4183 39° Northeast 151 174 9,000  Level Indianapolis Center
Fri 20:58:23 40.2483 -83.3808 46° Northeast 151 174 9,000 -85 Level Indianapolis Center
Fri 20:58:39 40.2522 -83.3775 33° Northeast 153 176 8,900  Descending Indianapolis Center
Fri 20:59:30 40.2806 -83.3383 47° Northeast 151 174 9,000 54 Climbing Indianapolis Center
Fri 21:00:31 40.3108 -83.2981 45° Northeast 154 177 9,000  Level Indianapolis Center
Fri 21:01:32 40.3406 -83.2608 44° Northeast 152 175 9,000  Level Indianapolis Center
Fri 21:02:44 40.3747 -83.2075 50° Northeast 155 178 9,000  Level Indianapolis Center
Fri 21:03:46 40.4050 -83.1681 45° Northeast 153 176 9,000  Level Indianapolis Center
Fri 21:04:47 40.4350 -83.1281 45° Northeast 153 176 9,000 -49 Level Indianapolis Center
Fri 21:05:48 40.4647 -83.0872 46° Northeast 152 175 8,900  Descending Indianapolis Center
Fri 21:06:50 40.4956 -83.0475 44° Northeast 153 176 9,000  Climbing Indianapolis Center
Fri 21:07:51 40.5242 -83.0092 46° Northeast 153 176 8,900 -49 Descending Indianapolis Center
Fri 21:08:53 40.5608 -82.9633 44° Northeast 154 177 8,900  Level Indianapolis Center
Fri 21:09:54 40.5917 -82.9233 45° Northeast 154 177 8,900  Level Indianapolis Center
Fri 21:10:55 40.6222 -82.8839 44° Northeast 154 177 8,900  Level Indianapolis Center
Fri 21:11:57 40.6533 -82.8439 44° Northeast 154 177 8,900  Level Indianapolis Center
Fri 21:12:58 40.6850 -82.8050 43° Northeast 155 178 8,900 49 Level Indianapolis Center
Fri 21:14:00 40.7156 -82.7644 45° Northeast 155 178 9,000  Climbing Indianapolis Center
Fri 21:15:01 40.7472 -82.7247 44° Northeast 155 178 8,900  Descending Indianapolis Center
Fri 21:16:02 40.7783 -82.6842 45° Northeast 156 180 9,000 49 Climbing Indianapolis Center
Fri 21:17:04 40.8103 -82.6456 42° Northeast 155 178 9,000  Level Indianapolis Center

Login

Don't have an account? Register now (free) for customized features, flight alerts, and more!